Connexion S'enregistrer

Connexion à votre compte

Identifiant
Mot de passe
Maintenir la connexion active sur ce site

Créer un compte

Pour valider ce formulaire, vous devez remplir tous les champs.
Nom
Identifiant
Mot de passe
Répétez le mot de passe
Adresse e-mail
Répétez l'adresse e-mail

Nous contacter

 Téléphone : +33 (0)4 79 54 41 81

Coordonnées détaillées et accès : cliquez ici

 
LFLB °C
    Ferienhaus Ostsee
[source: ADDS]
METAR
LFLB 190430Z AUTO VRB02KT 9999 FEW050 OVC066 03/01 Q1029 =
TAF LFLB 181700Z 1818/1918 VRB02KT CAVOK PROB40 TEMPO 1903/1907 -SHRA SCT050TCU TEMPO 1907/1913 18010KT 4000 -SHRA BKN014 FEW060TCU TEMPO 1913/1916 FEW045TCU
TAF
TAF LFLB 181700Z 1818/1918 VRB02KT CAVOK PROB40 TEMPO 1903/1907 -SHRA SCT050TCU TEMPO 1907/1913 18010KT 4000 -SHRA BKN014 FEW060TCU TEMPO 1913/1916 FEW045TCU =
SR / SS: 06:32 / 17:07 UTC (Lever/Coucher du soleil le 2020-02-19)
JSN Boot template designed by JoomlaShine.com